Time;durP1;ratioP1;P1;durP2;ratioP2;P2;SDS_P1;SDS_P2;PMS_P1;PMS_P2;Temp;Humidity;BMP_temperature;BMP_pressure;BME280_temperature;BME280_humidity;BME280_pressure;Samples;Min_cycle;Max_cycle;Signal;HPM_P1;HPM_P2
2022/11/05 00:09:31;;;;;;;;;;;14.40;99.90;;;;;;5059913;28;19915;-23
2022/11/05 00:17:29;;;;;;;;;;;14.40;99.90;;;;;;5092031;28;19958;-23
2022/11/05 00:19:55;;;;;;;;;;;14.30;99.90;;;;;;5091996;28;20332;-23
2022/11/05 00:25:15;;;;;;;;;;;14.30;99.90;;;;;;5092274;28;19938;-23
2022/11/05 00:27:48;;;;;;;;;;;14.30;99.90;;;;;;5091866;28;20366;-23
2022/11/05 00:30:17;;;;;;;;;;;14.30;99.90;;;;;;5091615;28;19915;-23
2022/11/05 00:32:43;;;;;;;;;;;14.30;99.90;;;;;;5090901;28;19961;-23
2022/11/05 00:35:08;;;;;;;;;;;14.30;99.90;;;;;;5091594;28;20377;-23
2022/11/05 00:37:34;;;;;;;;;;;14.30;99.90;;;;;;5091668;28;19908;-23
2022/11/05 00:40:00;;;;;;;;;;;14.30;99.90;;;;;;5091705;28;20336;-23
2022/11/05 00:45:10;;;;;;;;;;;14.30;99.90;;;;;;5092101;28;19915;-23
2022/11/05 00:50:21;;;;;;;;;;;14.30;99.90;;;;;;5092231;28;20297;-23
2022/11/05 00:52:54;;;;;;;;;;;14.30;99.90;;;;;;5090801;28;19908;-23
2022/11/05 00:55:20;;;;;;;;;;;14.30;99.90;;;;;;5091627;28;20366;-23
2022/11/05 00:57:46;;;;;;;;;;;14.30;99.90;;;;;;5091315;28;19999;-23
2022/11/05 01:00:11;;;;;;;;;;;14.30;99.90;;;;;;5091508;28;19999;-23
2022/11/05 01:02:37;;;;;;;;;;;14.30;99.90;;;;;;5090775;28;20431;-23
2022/11/05 01:05:03;;;;;;;;;;;14.30;99.90;;;;;;5091305;28;19912;-23
2022/11/05 01:07:28;;;;;;;;;;;14.30;99.90;;;;;;5091051;28;19912;-23
2022/11/05 01:09:54;;;;;;;;;;;14.30;99.90;;;;;;5091168;28;19912;-23
2022/11/05 01:12:19;;;;;;;;;;;14.30;99.90;;;;;;5091051;28;20277;-23
2022/11/05 01:14:45;;;;;;;;;;;14.30;99.90;;;;;;5090906;28;19908;-23
2022/11/05 01:17:10;;;;;;;;;;;14.30;99.90;;;;;;5091392;28;19916;-23
2022/11/05 01:19:37;;;;;;;;;;;14.30;99.90;;;;;;5091458;28;19995;-23
2022/11/05 01:22:03;;;;;;;;;;;14.30;99.90;;;;;;5090999;28;20293;-23
2022/11/05 01:24:28;;;;;;;;;;;14.30;99.90;;;;;;5090614;28;19908;-23
2022/11/05 01:26:54;;;;;;;;;;;14.30;99.90;;;;;;5091062;28;19916;-23
2022/11/05 01:29:19;;;;;;;;;;;14.30;99.90;;;;;;5090868;28;19908;-23
2022/11/05 01:31:45;;;;;;;;;;;14.30;99.90;;;;;;5091200;28;19908;-23
2022/11/05 01:34:11;;;;;;;;;;;14.30;99.90;;;;;;5090515;28;20324;-23
2022/11/05 01:36:36;;;;;;;;;;;14.30;99.90;;;;;;5091017;28;19908;-23
2022/11/05 01:39:02;;;;;;;;;;;14.30;99.90;;;;;;5090809;28;19959;-23
2022/11/05 01:41:27;;;;;;;;;;;14.30;99.90;;;;;;5094931;22;20445;-24
2022/11/05 01:43:55;;;;;;;;;;;14.30;99.90;;;;;;5071613;28;20296;-25
2022/11/05 01:46:25;;;;;;;;;;;14.20;99.90;;;;;;5074723;28;19917;-25
2022/11/05 01:48:51;;;;;;;;;;;14.20;99.90;;;;;;5074184;28;19909;-26
2022/11/05 01:51:18;;;;;;;;;;;14.30;99.90;;;;;;5089297;28;19908;-25
2022/11/05 01:53:52;;;;;;;;;;;14.30;99.90;;;;;;5094469;28;19938;-24
2022/11/05 01:56:50;;;;;;;;;;;14.30;99.90;;;;;;5094701;28;19908;-25
2022/11/05 01:59:19;;;;;;;;;;;14.30;99.90;;;;;;5070967;28;19912;-24
2022/11/05 02:01:45;;;;;;;;;;;14.30;99.90;;;;;;5094914;28;19918;-24
2022/11/05 02:04:13;;;;;;;;;;;14.30;99.90;;;;;;5094727;28;20314;-25
2022/11/05 02:06:45;;;;;;;;;;;14.30;99.90;;;;;;5094211;28;19916;-24
2022/11/05 02:09:13;;;;;;;;;;;14.30;99.90;;;;;;5094064;28;19912;-24
2022/11/05 02:11:39;;;;;;;;;;;14.20;99.90;;;;;;5094364;28;19923;-25
2022/11/05 02:14:04;;;;;;;;;;;14.20;99.90;;;;;;5093755;28;19913;-25
2022/11/05 02:16:48;;;;;;;;;;;14.20;99.90;;;;;;5094021;28;19912;-24
2022/11/05 02:19:33;;;;;;;;;;;14.30;99.90;;;;;;5093746;28;19915;-24
2022/11/05 02:21:58;;;;;;;;;;;14.20;99.90;;;;;;5093838;28;20452;-25
2022/11/05 02:24:23;;;;;;;;;;;14.20;99.90;;;;;;5093358;28;19990;-25
2022/11/05 02:27:04;;;;;;;;;;;14.30;99.90;;;;;;5093661;28;19919;-24
2022/11/05 02:29:30;;;;;;;;;;;14.20;99.90;;;;;;5093645;28;19912;-24
2022/11/05 02:32:04;;;;;;;;;;;14.30;99.90;;;;;;5093430;28;19908;-25
2022/11/05 02:34:32;;;;;;;;;;;14.30;99.90;;;;;;5093310;28;19915;-25
2022/11/05 02:37:10;;;;;;;;;;;14.30;99.90;;;;;;5093593;28;19909;-24
2022/11/05 02:39:35;;;;;;;;;;;14.20;99.90;;;;;;5093342;28;19962;-25
2022/11/05 02:42:14;;;;;;;;;;;14.30;99.90;;;;;;5093408;28;19982;-24
2022/11/05 02:44:46;;;;;;;;;;;14.30;99.90;;;;;;5092974;28;19912;-25
2022/11/05 02:47:20;;;;;;;;;;;14.20;99.90;;;;;;5093145;28;20015;-24
2022/11/05 02:49:49;;;;;;;;;;;14.20;99.90;;;;;;5093094;28;19966;-25
2022/11/05 02:52:21;;;;;;;;;;;14.20;99.90;;;;;;5093145;28;20357;-24
2022/11/05 02:54:55;;;;;;;;;;;14.20;99.90;;;;;;5092290;28;19962;-25
2022/11/05 02:57:21;;;;;;;;;;;14.20;99.90;;;;;;5093043;28;19914;-25
2022/11/05 02:59:46;;;;;;;;;;;14.20;99.90;;;;;;5093190;28;19994;-25
2022/11/05 03:02:12;;;;;;;;;;;14.20;99.90;;;;;;5093022;28;20010;-25
2022/11/05 03:04:38;;;;;;;;;;;14.20;99.90;;;;;;5092905;28;19988;-25
2022/11/05 03:07:03;;;;;;;;;;;14.20;99.90;;;;;;5092871;28;19912;-25
2022/11/05 03:09:47;;;;;;;;;;;14.20;99.90;;;;;;5092676;28;19909;-25
2022/11/05 03:12:31;;;;;;;;;;;14.20;99.90;;;;;;5092876;28;19912;-24
2022/11/05 03:15:15;;;;;;;;;;;14.20;99.90;;;;;;5093075;28;20114;-25
2022/11/05 03:17:41;;;;;;;;;;;14.20;99.90;;;;;;5092930;28;19915;-25
2022/11/05 03:20:11;;;;;;;;;;;14.20;99.90;;;;;;5092553;28;19908;-24
2022/11/05 03:22:46;;;;;;;;;;;14.20;99.90;;;;;;5092121;28;19912;-25
2022/11/05 03:25:15;;;;;;;;;;;14.20;99.90;;;;;;5092819;28;20002;-24
2022/11/05 03:27:43;;;;;;;;;;;14.20;99.90;;;;;;5092419;28;19912;-24
2022/11/05 03:30:10;;;;;;;;;;;14.20;99.90;;;;;;5092290;28;19911;-24
2022/11/05 03:32:39;;;;;;;;;;;14.20;99.90;;;;;;5091965;28;19912;-25
2022/11/05 03:35:09;;;;;;;;;;;14.20;99.90;;;;;;5092425;28;20395;-25
2022/11/05 03:37:36;;;;;;;;;;;14.20;99.90;;;;;;5093092;28;19911;-24
2022/11/05 03:40:04;;;;;;;;;;;14.20;99.90;;;;;;5091156;28;19920;-25
2022/11/05 03:42:32;;;;;;;;;;;14.20;99.90;;;;;;5092479;28;19912;-25
2022/11/05 03:44:59;;;;;;;;;;;14.20;99.90;;;;;;5092139;28;20045;-24
2022/11/05 03:47:26;;;;;;;;;;;14.20;99.90;;;;;;5092125;28;20365;-25
2022/11/05 03:49:58;;;;;;;;;;;14.20;99.90;;;;;;5092459;28;20280;-25
2022/11/05 03:52:26;;;;;;;;;;;14.20;99.90;;;;;;5091902;28;20376;-24
2022/11/05 03:54:52;;;;;;;;;;;14.20;99.90;;;;;;5091998;28;19953;-24
2022/11/05 03:57:31;;;;;;;;;;;14.20;99.90;;;;;;5091876;28;20327;-25
2022/11/05 03:59:57;;;;;;;;;;;14.20;99.90;;;;;;5091828;28;19908;-25
2022/11/05 04:02:24;;;;;;;;;;;14.20;99.90;;;;;;5091660;28;19915;-24
2022/11/05 04:04:50;;;;;;;;;;;14.20;99.90;;;;;;5091737;28;20392;-24
2022/11/05 04:17:05;;;;;;;;;;;14.20;99.90;;;;;;5091719;28;19931;-25
2022/11/05 04:18:16;;;;;;;;;;;14.20;99.90;;;;;;5091266;28;19916;-25
2022/11/05 04:26:10;;;;;;;;;;;14.20;99.90;;;;;;5091495;28;19919;-25
2022/11/05 04:31:19;;;;;;;;;;;14.20;99.90;;;;;;5091708;28;20383;-25
2022/11/05 04:33:44;;;;;;;;;;;14.20;99.90;;;;;;5091183;28;19912;-24
2022/11/05 04:36:10;;;;;;;;;;;14.20;99.90;;;;;;5091390;28;19912;-24
2022/11/05 04:38:35;;;;;;;;;;;14.20;99.90;;;;;;5091320;28;20276;-25
2022/11/05 04:41:14;;;;;;;;;;;14.20;99.90;;;;;;5091083;28;19927;-24
2022/11/05 04:43:39;;;;;;;;;;;14.20;99.90;;;;;;5090801;28;19940;-25
2022/11/05 04:46:05;;;;;;;;;;;14.10;99.90;;;;;;5091219;28;19962;-26
2022/11/05 04:48:31;;;;;;;;;;;14.10;99.90;;;;;;5091389;28;20372;-26
2022/11/05 04:50:56;;;;;;;;;;;14.10;99.90;;;;;;5091355;28;19908;-24
2022/11/05 04:53:22;;;;;;;;;;;14.10;99.90;;;;;;5090685;28;20435;-25
2022/11/05 04:55:47;;;;;;;;;;;14.10;99.90;;;;;;5091667;28;19934;-25
2022/11/05 04:58:13;;;;;;;;;;;14.10;99.90;;;;;;5091238;28;19916;-24
2022/11/05 05:00:38;;;;;;;;;;;14.10;99.90;;;;;;5092131;28;20535;-24
2022/11/05 05:03:04;;;;;;;;;;;14.10;99.90;;;;;;5091438;28;20042;-24
2022/11/05 05:05:29;;;;;;;;;;;14.20;99.90;;;;;;5091821;28;20293;-25
2022/11/05 05:07:59;;;;;;;;;;;14.10;99.90;;;;;;5090956;28;19912;-25
2022/11/05 05:10:25;;;;;;;;;;;14.10;99.90;;;;;;5089607;28;20357;-25
2022/11/05 05:12:50;;;;;;;;;;;14.10;99.90;;;;;;5090543;28;19981;-25
2022/11/05 05:15:16;;;;;;;;;;;14.10;99.90;;;;;;5091074;28;19912;-24
2022/11/05 05:17:42;;;;;;;;;;;14.10;99.90;;;;;;5091797;28;19919;-25
2022/11/05 05:22:52;;;;;;;;;;;14.20;99.90;;;;;;5094550;28;20491;-24
2022/11/05 05:25:17;;;;;;;;;;;14.20;99.90;;;;;;5094937;28;20349;-24
2022/11/05 05:27:43;;;;;;;;;;;14.10;99.90;;;;;;5094680;28;19916;-26
2022/11/05 05:30:08;;;;;;;;;;;14.20;99.90;;;;;;5094820;28;19908;-25
2022/11/05 05:32:34;;;;;;;;;;;14.10;99.90;;;;;;5094427;28;20323;-24
2022/11/05 05:34:59;;;;;;;;;;;14.10;99.90;;;;;;5094783;28;19908;-24
2022/11/05 05:37:25;;;;;;;;;;;14.10;99.90;;;;;;5094494;28;20418;-25
2022/11/05 05:39:52;;;;;;;;;;;14.10;99.90;;;;;;5094530;28;19993;-25
2022/11/05 05:42:20;;;;;;;;;;;14.10;99.90;;;;;;5094999;28;19918;-24
2022/11/05 05:44:45;;;;;;;;;;;14.10;99.90;;;;;;5094225;28;19915;-25
2022/11/05 05:47:14;;;;;;;;;;;14.10;99.90;;;;;;5093430;28;19916;-25
2022/11/05 05:49:39;;;;;;;;;;;14.10;99.90;;;;;;5094352;28;19951;-25
2022/11/05 05:52:05;;;;;;;;;;;14.10;99.90;;;;;;5094739;28;20376;-25
2022/11/05 05:54:30;;;;;;;;;;;14.10;99.90;;;;;;5094192;28;19954;-25
2022/11/05 05:56:56;;;;;;;;;;;14.10;99.90;;;;;;5094352;28;19915;-25
2022/11/05 05:59:22;;;;;;;;;;;14.10;99.90;;;;;;5094252;28;20414;-25
2022/11/05 06:01:48;;;;;;;;;;;14.10;99.90;;;;;;5094130;28;19919;-25
2022/11/05 06:04:13;;;;;;;;;;;14.10;99.90;;;;;;5093680;28;19913;-25
2022/11/05 06:06:39;;;;;;;;;;;14.10;99.90;;;;;;5094036;28;19916;-24
2022/11/05 06:09:04;;;;;;;;;;;14.10;99.90;;;;;;5092916;28;19909;-25
2022/11/05 06:11:30;;;;;;;;;;;14.10;99.90;;;;;;5093826;28;19908;-25
2022/11/05 06:13:56;;;;;;;;;;;14.10;99.90;;;;;;5093511;28;19915;-25
2022/11/05 06:16:21;;;;;;;;;;;14.10;99.90;;;;;;5094248;28;20281;-25
2022/11/05 06:18:47;;;;;;;;;;;14.10;99.90;;;;;;5093819;28;20357;-25
2022/11/05 06:21:14;;;;;;;;;;;14.10;99.90;;;;;;5093629;28;19919;-25
2022/11/05 06:23:40;;;;;;;;;;;14.10;99.90;;;;;;5093300;28;19908;-24
2022/11/05 06:26:16;;;;;;;;;;;14.10;99.90;;;;;;5093611;28;19951;-25
2022/11/05 06:28:42;;;;;;;;;;;14.10;99.90;;;;;;5093328;28;20431;-25
2022/11/05 06:31:08;;;;;;;;;;;14.10;99.90;;;;;;5092906;28;19908;-25
2022/11/05 06:33:34;;;;;;;;;;;14.10;99.90;;;;;;5093049;28;19991;-25
2022/11/05 06:36:03;;;;;;;;;;;14.10;99.90;;;;;;5093830;28;20346;-25
2022/11/05 06:38:30;;;;;;;;;;;14.10;99.90;;;;;;5093603;28;19908;-25
2022/11/05 06:40:59;;;;;;;;;;;14.10;99.90;;;;;;5093219;28;19916;-25
2022/11/05 06:43:25;;;;;;;;;;;14.10;99.90;;;;;;5093006;28;19943;-25
2022/11/05 06:45:51;;;;;;;;;;;14.10;99.90;;;;;;5093258;28;19965;-25
2022/11/05 06:48:16;;;;;;;;;;;14.10;99.90;;;;;;5093261;28;20284;-25
2022/11/05 06:50:42;;;;;;;;;;;14.10;99.90;;;;;;5092083;28;19912;-25
2022/11/05 06:53:08;;;;;;;;;;;14.10;99.90;;;;;;5093063;28;20369;-25
2022/11/05 06:55:33;;;;;;;;;;;14.10;99.90;;;;;;5093252;28;20381;-25
2022/11/05 06:57:59;;;;;;;;;;;14.10;99.90;;;;;;5093142;28;20011;-26
2022/11/05 07:00:24;;;;;;;;;;;14.10;99.90;;;;;;5093243;28;19969;-25
2022/11/05 07:02:50;;;;;;;;;;;14.10;99.90;;;;;;5091043;28;19909;-25
2022/11/05 07:05:16;;;;;;;;;;;14.10;99.90;;;;;;5092972;28;19912;-25
2022/11/05 07:07:42;;;;;;;;;;;14.10;99.90;;;;;;5092854;28;19916;-24
2022/11/05 07:10:12;;;;;;;;;;;14.10;99.90;;;;;;5092931;28;19908;-25
2022/11/05 07:12:38;;;;;;;;;;;14.10;99.90;;;;;;5092480;28;19915;-25
2022/11/05 07:15:03;;;;;;;;;;;14.10;99.90;;;;;;5091547;28;20284;-25
2022/11/05 07:17:29;;;;;;;;;;;14.10;99.90;;;;;;5092685;28;20416;-25
2022/11/05 07:19:54;;;;;;;;;;;14.10;99.90;;;;;;5092635;28;19908;-24
2022/11/05 07:22:20;;;;;;;;;;;14.10;99.90;;;;;;5092806;28;19934;-25
2022/11/05 07:24:46;;;;;;;;;;;14.10;99.90;;;;;;5092386;28;19912;-26
2022/11/05 07:27:13;;;;;;;;;;;14.10;99.90;;;;;;5091207;28;19916;-25
2022/11/05 07:29:38;;;;;;;;;;;14.10;99.90;;;;;;5092406;28;20428;-25
2022/11/05 07:32:04;;;;;;;;;;;14.10;99.90;;;;;;5092566;28;20004;-24
2022/11/05 07:34:30;;;;;;;;;;;14.10;99.90;;;;;;5092001;28;19908;-25
2022/11/05 07:36:55;;;;;;;;;;;14.10;99.90;;;;;;5092452;28;19950;-24
2022/11/05 07:39:21;;;;;;;;;;;14.00;99.90;;;;;;5092377;28;19908;-25
2022/11/05 07:41:46;;;;;;;;;;;14.00;99.90;;;;;;5113157;22;20415;-24
2022/11/05 07:44:13;;;;;;;;;;;14.00;99.90;;;;;;5091767;28;19908;-23
2022/11/05 07:46:39;;;;;;;;;;;14.00;99.90;;;;;;5092105;28;20342;-23
2022/11/05 07:49:05;;;;;;;;;;;14.00;99.90;;;;;;5092695;28;19908;-24
2022/11/05 07:51:30;;;;;;;;;;;14.00;99.90;;;;;;5092826;28;19919;-23
2022/11/05 07:53:56;;;;;;;;;;;14.10;99.90;;;;;;5091871;28;20270;-23
2022/11/05 07:56:22;;;;;;;;;;;14.00;99.90;;;;;;5092168;28;19908;-23
2022/11/05 07:58:47;;;;;;;;;;;14.00;99.90;;;;;;5091952;28;19986;-23
2022/11/05 08:01:13;;;;;;;;;;;14.10;99.90;;;;;;5092085;28;19908;-23
2022/11/05 08:03:38;;;;;;;;;;;14.10;99.90;;;;;;5091607;28;20012;-23
2022/11/05 08:06:04;;;;;;;;;;;14.10;99.90;;;;;;5091953;28;20403;-23
2022/11/05 08:08:29;;;;;;;;;;;14.00;99.90;;;;;;5091785;28;19933;-23
2022/11/05 08:11:00;;;;;;;;;;;14.00;99.90;;;;;;5092149;28;19919;-23
2022/11/05 08:13:26;;;;;;;;;;;14.00;99.90;;;;;;5091437;28;19923;-23
2022/11/05 08:15:51;;;;;;;;;;;14.00;99.90;;;;;;5092050;28;19909;-23
2022/11/05 08:18:17;;;;;;;;;;;14.00;99.90;;;;;;5092278;28;19927;-23
2022/11/05 08:20:43;;;;;;;;;;;14.00;99.90;;;;;;5092705;28;19908;-23
2022/11/05 08:23:09;;;;;;;;;;;14.00;99.90;;;;;;5091894;28;19919;-23
2022/11/05 08:25:35;;;;;;;;;;;13.80;99.90;;;;;;5092067;28;19908;-23
2022/11/05 08:28:02;;;;;;;;;;;13.60;99.90;;;;;;5091485;28;19916;-23
2022/11/05 08:30:28;;;;;;;;;;;13.50;99.90;;;;;;5091962;28;19958;-24
2022/11/05 08:32:58;;;;;;;;;;;13.50;99.90;;;;;;5091386;28;20295;-23
2022/11/05 08:35:24;;;;;;;;;;;13.50;99.90;;;;;;5092102;28;20338;-23
2022/11/05 08:37:49;;;;;;;;;;;13.50;99.90;;;;;;5091539;28;19999;-23
2022/11/05 08:40:15;;;;;;;;;;;13.60;99.90;;;;;;5091868;28;20285;-23
2022/11/05 08:42:41;;;;;;;;;;;13.60;99.90;;;;;;5091417;28;19938;-23
2022/11/05 08:45:06;;;;;;;;;;;13.70;99.90;;;;;;5091303;28;19912;-23
2022/11/05 08:47:32;;;;;;;;;;;13.70;99.90;;;;;;5091335;28;19916;-23
2022/11/05 08:49:57;;;;;;;;;;;13.70;99.90;;;;;;5091648;28;19908;-24
2022/11/05 08:52:23;;;;;;;;;;;13.70;99.90;;;;;;5092863;28;19908;-24
2022/11/05 08:54:48;;;;;;;;;;;13.70;99.90;;;;;;5097547;28;19935;-23
2022/11/05 08:57:14;;;;;;;;;;;13.80;99.90;;;;;;5097923;28;20400;-23
2022/11/05 08:59:39;;;;;;;;;;;13.80;99.90;;;;;;5098271;28;20045;-23
2022/11/05 09:02:05;;;;;;;;;;;13.80;99.90;;;;;;5098103;28;19908;-23
2022/11/05 09:04:30;;;;;;;;;;;13.80;99.90;;;;;;5097878;28;20228;-23
2022/11/05 09:06:56;;;;;;;;;;;13.80;99.90;;;;;;5098272;28;19912;-23
2022/11/05 09:09:21;;;;;;;;;;;13.80;99.90;;;;;;5097996;28;20332;-23
2022/11/05 09:11:47;;;;;;;;;;;13.80;99.90;;;;;;5098219;28;19908;-23
2022/11/05 09:14:13;;;;;;;;;;;13.80;99.90;;;;;;5096398;28;19912;-23
2022/11/05 09:16:38;;;;;;;;;;;13.70;99.90;;;;;;5098119;28;19923;-23
2022/11/05 09:19:04;;;;;;;;;;;13.50;99.90;;;;;;5098117;28;19975;-23
2022/11/05 09:21:29;;;;;;;;;;;13.50;99.90;;;;;;5098059;28;20397;-23
2022/11/05 09:23:55;;;;;;;;;;;13.50;99.90;;;;;;5097657;28;19912;-23
2022/11/05 09:26:21;;;;;;;;;;;13.50;99.90;;;;;;5096384;28;19939;-23
2022/11/05 09:28:46;;;;;;;;;;;13.60;99.90;;;;;;5097995;28;19908;-23
2022/11/05 09:31:12;;;;;;;;;;;13.60;99.90;;;;;;5097991;28;19908;-23
2022/11/05 09:33:39;;;;;;;;;;;13.60;99.90;;;;;;5096255;28;19912;-23
2022/11/05 09:36:04;;;;;;;;;;;13.70;99.90;;;;;;5098677;28;20449;-23
2022/11/05 09:38:31;;;;;;;;;;;13.70;99.90;;;;;;5098030;28;19958;-23
2022/11/05 09:41:19;;;;;;;;;;;13.70;99.90;;;;;;5097636;28;19938;-23
2022/11/05 09:43:48;;;;;;;;;;;13.80;99.90;;;;;;5097254;28;20216;-23
2022/11/05 09:46:18;;;;;;;;;;;13.80;99.90;;;;;;5097697;28;19912;-23
2022/11/05 09:48:47;;;;;;;;;;;13.80;99.90;;;;;;5098051;28;19953;-23
2022/11/05 09:51:14;;;;;;;;;;;13.80;99.90;;;;;;5097737;28;19915;-23
2022/11/05 09:53:40;;;;;;;;;;;13.80;99.90;;;;;;5097504;28;19943;-23
2022/11/05 09:56:11;;;;;;;;;;;13.80;99.90;;;;;;5098118;28;19955;-23
2022/11/05 09:58:42;;;;;;;;;;;13.80;99.90;;;;;;5098002;28;19908;-24
2022/11/05 10:01:10;;;;;;;;;;;13.90;99.90;;;;;;5098026;28;20081;-23
2022/11/05 10:03:42;;;;;;;;;;;13.90;99.90;;;;;;5097121;28;19950;-23
2022/11/05 10:06:09;;;;;;;;;;;13.90;99.90;;;;;;5092572;28;20210;-23
2022/11/05 10:08:41;;;;;;;;;;;13.90;99.90;;;;;;5094077;28;20371;-23
2022/11/05 10:11:11;;;;;;;;;;;13.90;99.90;;;;;;5094157;28;19912;-23
2022/11/05 10:13:46;;;;;;;;;;;13.90;99.90;;;;;;5093550;28;19999;-23
2022/11/05 10:16:23;;;;;;;;;;;13.90;99.90;;;;;;5094002;28;20026;-23
2022/11/05 10:19:01;;;;;;;;;;;13.90;99.90;;;;;;5094505;28;19912;-23
2022/11/05 10:21:27;;;;;;;;;;;14.00;99.90;;;;;;5094011;28;19912;-23
2022/11/05 10:23:53;;;;;;;;;;;14.00;99.90;;;;;;5093765;28;20013;-23
2022/11/05 10:26:20;;;;;;;;;;;14.00;99.90;;;;;;5094203;28;19916;-23
2022/11/05 10:28:46;;;;;;;;;;;14.00;99.90;;;;;;5093946;28;20315;-23
2022/11/05 10:31:13;;;;;;;;;;;14.00;99.90;;;;;;5092938;28;19927;-23
2022/11/05 10:33:44;;;;;;;;;;;14.00;99.90;;;;;;5094257;28;19920;-23
2022/11/05 10:36:24;;;;;;;;;;;14.10;99.90;;;;;;5093810;28;19912;-24
2022/11/05 10:38:50;;;;;;;;;;;14.10;99.90;;;;;;5093377;28;19918;-23
2022/11/05 10:41:16;;;;;;;;;;;14.10;99.90;;;;;;5093033;28;20379;-23
2022/11/05 10:43:49;;;;;;;;;;;14.10;99.90;;;;;;5093578;28;19927;-23
2022/11/05 10:46:24;;;;;;;;;;;14.10;99.90;;;;;;5093692;28;19912;-23
2022/11/05 10:48:56;;;;;;;;;;;14.10;99.90;;;;;;5093935;28;19915;-23
2022/11/05 10:51:22;;;;;;;;;;;14.20;99.90;;;;;;5093634;28;19912;-23
2022/11/05 10:53:59;;;;;;;;;;;14.20;99.90;;;;;;5093323;28;20178;-23
2022/11/05 10:56:28;;;;;;;;;;;14.20;99.90;;;;;;5093915;28;19960;-23
2022/11/05 10:58:55;;;;;;;;;;;14.20;99.90;;;;;;5093577;28;19993;-23
2022/11/05 11:01:23;;;;;;;;;;;14.20;99.90;;;;;;5093389;28;19919;-23
2022/11/05 11:03:52;;;;;;;;;;;14.30;99.90;;;;;;5093041;28;19916;-23
2022/11/05 11:06:28;;;;;;;;;;;14.20;99.90;;;;;;5093258;28;19912;-23
2022/11/05 11:08:54;;;;;;;;;;;14.20;99.90;;;;;;5093373;28;19915;-23
2022/11/05 11:11:34;;;;;;;;;;;14.20;99.90;;;;;;5093389;28;20339;-23
2022/11/05 11:14:04;;;;;;;;;;;14.20;99.90;;;;;;5093249;28;19919;-23
2022/11/05 11:16:40;;;;;;;;;;;14.30;99.90;;;;;;5092890;28;20002;-23
2022/11/05 11:19:24;;;;;;;;;;;14.20;99.90;;;;;;5093502;28;19987;-23
2022/11/05 11:22:02;;;;;;;;;;;14.20;99.90;;;;;;5092968;28;19912;-23
2022/11/05 11:24:28;;;;;;;;;;;14.20;99.90;;;;;;5092790;28;20061;-23
2022/11/05 11:26:59;;;;;;;;;;;14.20;99.90;;;;;;5092861;28;20419;-23
2022/11/05 11:29:26;;;;;;;;;;;14.10;99.90;;;;;;5093456;28;20298;-23
2022/11/05 11:31:56;;;;;;;;;;;14.20;99.90;;;;;;5092761;28;19908;-23
2022/11/05 11:34:40;;;;;;;;;;;14.10;99.90;;;;;;5092212;28;20392;-23
2022/11/05 11:37:06;;;;;;;;;;;14.10;99.90;;;;;;5092891;28;20007;-23
2022/11/05 11:39:32;;;;;;;;;;;14.20;99.90;;;;;;5092872;28;19951;-23
2022/11/05 11:41:59;;;;;;;;;;;14.10;99.90;;;;;;5092385;28;19956;-23
2022/11/05 11:44:29;;;;;;;;;;;14.10;99.90;;;;;;5092314;28;20006;-23
2022/11/05 11:46:56;;;;;;;;;;;14.10;99.90;;;;;;5092541;28;19922;-23
2022/11/05 11:49:32;;;;;;;;;;;14.10;99.90;;;;;;5092945;28;20365;-23
2022/11/05 11:52:04;;;;;;;;;;;14.10;99.90;;;;;;5092583;28;19908;-23
2022/11/05 11:54:31;;;;;;;;;;;14.10;99.90;;;;;;5090746;28;20457;-23
2022/11/05 11:56:56;;;;;;;;;;;14.10;99.90;;;;;;5092551;28;19948;-23
2022/11/05 11:59:23;;;;;;;;;;;14.10;99.90;;;;;;5092640;28;19962;-23
2022/11/05 12:02:08;;;;;;;;;;;14.10;99.90;;;;;;5092089;28;19918;-23
2022/11/05 12:04:33;;;;;;;;;;;14.10;99.90;;;;;;5091773;28;19908;-23
2022/11/05 12:07:17;;;;;;;;;;;14.10;99.90;;;;;;5092000;28;19938;-23
2022/11/05 12:09:43;;;;;;;;;;;14.10;99.90;;;;;;5092307;28;19912;-23
2022/11/05 12:12:10;;;;;;;;;;;14.00;99.90;;;;;;5091983;28;19919;-23
2022/11/05 12:14:51;;;;;;;;;;;14.00;99.90;;;;;;5091593;28;19995;-23
2022/11/05 12:17:22;;;;;;;;;;;14.10;99.90;;;;;;5092488;28;20365;-23
2022/11/05 12:19:47;;;;;;;;;;;14.00;99.90;;;;;;5091957;28;19961;-23
2022/11/05 12:22:31;;;;;;;;;;;14.00;99.90;;;;;;5092132;28;19919;-23
2022/11/05 12:25:12;;;;;;;;;;;14.00;99.90;;;;;;5091754;28;19912;-23
2022/11/05 12:27:41;;;;;;;;;;;14.00;99.90;;;;;;5090676;28;19955;-23
2022/11/05 12:30:15;;;;;;;;;;;14.00;99.90;;;;;;5091909;28;19919;-23
2022/11/05 12:32:59;;;;;;;;;;;14.10;99.90;;;;;;5091158;28;19908;-23
2022/11/05 12:35:44;;;;;;;;;;;14.00;99.90;;;;;;5091942;28;19989;-23
2022/11/05 12:38:09;;;;;;;;;;;14.00;99.90;;;;;;5091764;28;19912;-23
2022/11/05 12:40:56;;;;;;;;;;;14.10;99.90;;;;;;5091792;28;19912;-23
2022/11/05 12:43:22;;;;;;;;;;;13.90;99.90;;;;;;5091218;28;19908;-23
2022/11/05 12:45:53;;;;;;;;;;;13.80;99.90;;;;;;5091642;28;19916;-23
2022/11/05 12:48:25;;;;;;;;;;;13.80;99.90;;;;;;5091151;28;19938;-23
2022/11/05 12:51:03;;;;;;;;;;;13.80;99.90;;;;;;5091915;28;20205;-23
2022/11/05 12:53:31;;;;;;;;;;;13.80;99.90;;;;;;5091088;28;19924;-23
2022/11/05 12:55:58;;;;;;;;;;;13.80;99.90;;;;;;5091650;28;19915;-23
2022/11/05 12:58:39;;;;;;;;;;;13.80;99.90;;;;;;5089967;28;19966;-23
2022/11/05 13:01:07;;;;;;;;;;;13.80;99.90;;;;;;5091659;28;19961;-23
2022/11/05 13:03:35;;;;;;;;;;;13.80;99.90;;;;;;5091306;28;19916;-23
2022/11/05 13:06:05;;;;;;;;;;;13.80;99.90;;;;;;5091426;28;19912;-23
2022/11/05 13:08:35;;;;;;;;;;;13.80;99.90;;;;;;5091459;28;19908;-23
2022/11/05 13:11:23;;;;;;;;;;;13.90;99.90;;;;;;5091345;28;19950;-23
2022/11/05 13:14:18;;;;;;;;;;;13.90;99.90;;;;;;5091014;28;19916;-23
2022/11/05 13:16:47;;;;;;;;;;;13.90;99.90;;;;;;5082278;28;19909;-23
2022/11/05 13:19:29;;;;;;;;;;;13.90;99.90;;;;;;5091721;28;19912;-23
2022/11/05 13:22:06;;;;;;;;;;;13.80;99.90;;;;;;5091129;28;19909;-23
2022/11/05 13:24:37;;;;;;;;;;;13.90;99.90;;;;;;5091105;28;19916;-23
2022/11/05 13:27:23;;;;;;;;;;;13.90;99.90;;;;;;5091325;28;19919;-23
2022/11/05 13:29:51;;;;;;;;;;;13.90;99.90;;;;;;5058835;28;20328;-24
2022/11/05 13:32:23;;;;;;;;;;;13.90;99.90;;;;;;5091336;28;19912;-24
2022/11/05 13:34:50;;;;;;;;;;;13.90;99.90;;;;;;5089948;28;20001;-23
2022/11/05 13:40:07;;;;;;;;;;;13.90;99.90;;;;;;5094446;28;20315;-23
2022/11/05 13:42:35;;;;;;;;;;;13.90;99.90;;;;;;5094914;28;20400;-23
2022/11/05 13:45:03;;;;;;;;;;;13.90;99.90;;;;;;5094881;28;19961;-23
2022/11/05 13:47:35;;;;;;;;;;;13.90;99.90;;;;;;5094687;28;19924;-23
2022/11/05 13:50:20;;;;;;;;;;;13.90;99.90;;;;;;5094736;28;19933;-23
2022/11/05 13:52:54;;;;;;;;;;;13.90;99.90;;;;;;5093166;28;19961;-24
2022/11/05 13:55:29;;;;;;;;;;;13.90;99.90;;;;;;5094960;28;20372;-23
2022/11/05 13:58:04;;;;;;;;;;;13.90;99.90;;;;;;5095041;28;20289;-23
2022/11/05 14:00:35;;;;;;;;;;;13.90;99.90;;;;;;5094613;28;19938;-23
2022/11/05 14:03:03;;;;;;;;;;;13.90;99.90;;;;;;5094319;28;19919;-23
2022/11/05 14:05:30;;;;;;;;;;;13.90;99.90;;;;;;5094371;28;20328;-23
2022/11/05 14:07:58;;;;;;;;;;;13.90;99.90;;;;;;5094544;28;19965;-24
2022/11/05 14:10:27;;;;;;;;;;;13.90;99.90;;;;;;5094264;28;19908;-23
2022/11/05 14:12:54;;;;;;;;;;;13.90;99.90;;;;;;5094130;28;20387;-23
2022/11/05 14:15:24;;;;;;;;;;;13.90;99.90;;;;;;5094311;28;19912;-23
2022/11/05 14:17:56;;;;;;;;;;;13.90;99.90;;;;;;5094320;28;19912;-24
2022/11/05 14:20:30;;;;;;;;;;;13.90;99.90;;;;;;5094416;28;20345;-23
2022/11/05 14:23:14;;;;;;;;;;;13.90;99.90;;;;;;5094080;28;20254;-23
2022/11/05 14:25:43;;;;;;;;;;;13.90;99.90;;;;;;5094648;28;19916;-23
2022/11/05 14:28:43;;;;;;;;;;;13.90;99.90;;;;;;5094195;28;19912;-23
2022/11/05 14:31:18;;;;;;;;;;;13.80;99.90;;;;;;5034455;28;19925;-24
2022/11/05 14:34:02;;;;;;;;;;;13.90;99.90;;;;;;5087319;28;19970;-23
2022/11/05 14:36:32;;;;;;;;;;;13.90;99.90;;;;;;5094176;28;19909;-23
2022/11/05 14:39:01;;;;;;;;;;;13.90;99.90;;;;;;5094329;28;19912;-23
2022/11/05 14:41:26;;;;;;;;;;;13.90;99.90;;;;;;5093853;28;19920;-23
2022/11/05 14:43:52;;;;;;;;;;;13.90;99.90;;;;;;5093540;28;19961;-23
2022/11/05 14:46:17;;;;;;;;;;;13.90;99.90;;;;;;5093914;28;19970;-23
2022/11/05 14:48:47;;;;;;;;;;;13.90;99.90;;;;;;5094239;28;20197;-23
2022/11/05 14:51:27;;;;;;;;;;;13.90;99.90;;;;;;5094006;28;19936;-23
2022/11/05 14:54:01;;;;;;;;;;;13.90;99.90;;;;;;5093482;28;19908;-23
2022/11/05 14:56:27;;;;;;;;;;;13.90;99.90;;;;;;5093937;28;19909;-23
2022/11/05 14:59:12;;;;;;;;;;;13.90;99.90;;;;;;5094049;28;19912;-23
2022/11/05 15:01:38;;;;;;;;;;;13.90;99.90;;;;;;5093585;28;19930;-23
2022/11/05 15:04:03;;;;;;;;;;;13.90;99.90;;;;;;5093274;28;19912;-23
2022/11/05 15:06:33;;;;;;;;;;;13.90;99.90;;;;;;5093700;28;20022;-23
2022/11/05 15:09:11;;;;;;;;;;;13.90;99.90;;;;;;5093440;28;19908;-23
2022/11/05 15:11:38;;;;;;;;;;;13.90;99.90;;;;;;5093517;28;19908;-23